createdAt,value
2018-09-28T00:01:30.745Z,15.40
2018-09-28T00:03:58.857Z,15.50
2018-09-28T00:06:27.022Z,15.50
2018-09-28T00:08:55.098Z,15.40
2018-09-28T00:11:23.173Z,15.40
2018-09-28T00:13:51.290Z,15.30
2018-09-28T00:16:19.379Z,15.30
2018-09-28T00:18:47.434Z,15.40
2018-09-28T00:21:15.513Z,15.30
2018-09-28T00:23:43.567Z,15.30
2018-09-28T00:26:11.698Z,15.30
2018-09-28T00:28:39.749Z,15.20
2018-09-28T00:31:07.870Z,15.20
2018-09-28T00:33:35.937Z,15.20
2018-09-28T00:36:03.994Z,15.20
2018-09-28T00:38:32.065Z,15.20
2018-09-28T00:41:00.130Z,15.10
2018-09-28T00:43:28.175Z,15.10
2018-09-28T00:45:56.247Z,15.10
2018-09-28T00:48:24.320Z,15.00
2018-09-28T00:50:52.376Z,15.00
2018-09-28T00:53:20.435Z,15.00
2018-09-28T00:55:48.493Z,14.90
2018-09-28T00:58:16.550Z,14.80
2018-09-28T01:00:44.635Z,14.80
2018-09-28T01:03:12.681Z,14.80
2018-09-28T01:05:40.770Z,14.70
2018-09-28T01:08:08.818Z,14.70
2018-09-28T01:10:36.874Z,14.70
2018-09-28T01:13:04.946Z,14.70
2018-09-28T01:15:33.005Z,14.60
2018-09-28T01:18:01.072Z,14.60
2018-09-28T01:20:29.143Z,14.60
2018-09-28T01:22:57.178Z,14.60
2018-09-28T01:25:25.230Z,14.60
2018-09-28T01:27:53.281Z,14.50
2018-09-28T01:30:21.338Z,14.50
2018-09-28T01:32:49.425Z,14.40
2018-09-28T01:35:17.501Z,14.30
2018-09-28T01:37:45.573Z,14.30
2018-09-28T01:40:13.646Z,14.20
2018-09-28T01:42:41.724Z,14.10
2018-09-28T01:45:09.777Z,14.10
2018-09-28T01:47:37.834Z,14.10
2018-09-28T01:50:05.914Z,14.10
2018-09-28T01:52:33.981Z,14.10
2018-09-28T01:55:02.052Z,14.00
2018-09-28T01:57:30.653Z,14.00
2018-09-28T01:59:58.741Z,13.90
2018-09-28T02:02:27.194Z,13.90
2018-09-28T02:04:55.282Z,13.80
2018-09-28T02:07:23.341Z,13.90
2018-09-28T02:09:51.409Z,13.90
2018-09-28T02:12:19.486Z,13.90
2018-09-28T02:14:47.538Z,13.80
2018-09-28T02:17:15.593Z,13.80
2018-09-28T02:19:43.845Z,13.90
2018-09-28T02:22:11.913Z,13.90
2018-09-28T02:24:39.957Z,13.80
2018-09-28T02:27:08.030Z,13.80
2018-09-28T02:29:36.101Z,13.70
2018-09-28T02:32:04.194Z,13.70
2018-09-28T02:34:32.245Z,13.60
2018-09-28T02:37:00.293Z,13.60
2018-09-28T02:39:28.325Z,13.60
2018-09-28T02:41:56.385Z,13.50
2018-09-28T02:44:24.445Z,13.50
2018-09-28T02:46:52.464Z,13.50
2018-09-28T02:49:20.532Z,13.50
2018-09-28T02:51:48.578Z,13.40
2018-09-28T02:54:16.618Z,13.40
2018-09-28T02:56:44.746Z,13.40
2018-09-28T02:59:12.744Z,13.30
2018-09-28T03:01:40.849Z,13.30
2018-09-28T03:04:08.889Z,13.30
2018-09-28T03:06:37.025Z,13.30
2018-09-28T03:09:07.138Z,13.30
2018-09-28T03:11:35.298Z,13.30
2018-09-28T03:14:03.369Z,13.20
2018-09-28T03:16:31.749Z,13.20
2018-09-28T03:18:59.810Z,13.10
2018-09-28T03:21:28.057Z,13.00
2018-09-28T03:23:56.129Z,13.00
2018-09-28T03:26:24.217Z,13.00
2018-09-28T03:28:52.261Z,13.00
2018-09-28T03:31:20.311Z,13.00
2018-09-28T03:33:48.359Z,13.00
2018-09-28T03:36:16.409Z,13.00
2018-09-28T03:38:44.479Z,13.00
2018-09-28T03:41:12.520Z,13.00
2018-09-28T03:43:40.598Z,13.00
2018-09-28T03:46:08.687Z,13.00
2018-09-28T03:48:36.736Z,13.10
2018-09-28T03:51:04.797Z,13.10
2018-09-28T03:53:32.851Z,13.00
2018-09-28T03:56:00.915Z,13.00
2018-09-28T03:58:28.958Z,13.00
2018-09-28T04:00:57.018Z,12.90
2018-09-28T04:03:25.078Z,12.90
2018-09-28T04:05:53.145Z,13.00
2018-09-28T04:08:21.217Z,12.90
2018-09-28T04:10:49.269Z,12.90
2018-09-28T04:13:17.598Z,12.90
2018-09-28T04:15:45.646Z,12.90
2018-09-28T04:18:13.699Z,13.00
2018-09-28T04:20:41.742Z,13.00
2018-09-28T04:23:09.813Z,12.90
2018-09-28T04:25:37.885Z,12.90
2018-09-28T04:28:05.941Z,12.80
2018-09-28T04:30:34.053Z,12.80
2018-09-28T04:33:02.137Z,12.80
2018-09-28T04:35:30.174Z,12.80
2018-09-28T04:37:58.245Z,12.80
2018-09-28T04:40:26.305Z,12.80
2018-09-28T04:42:54.341Z,12.70
2018-09-28T04:45:22.544Z,12.70
2018-09-28T04:47:50.499Z,12.60
2018-09-28T04:50:18.533Z,12.60
2018-09-28T04:52:46.590Z,12.60
2018-09-28T04:55:14.628Z,12.60
2018-09-28T04:57:42.690Z,12.70
2018-09-28T05:00:11.089Z,12.60
2018-09-28T05:02:39.137Z,12.60
2018-09-28T05:05:07.245Z,12.50
2018-09-28T05:07:35.286Z,12.50
2018-09-28T05:10:03.382Z,12.50
2018-09-28T05:12:31.417Z,12.50
2018-09-28T05:14:59.483Z,12.40
2018-09-28T05:17:27.542Z,12.30
2018-09-28T05:19:55.593Z,12.30
2018-09-28T05:22:23.638Z,12.30
2018-09-28T05:24:51.681Z,12.20
2018-09-28T05:27:19.709Z,12.10
2018-09-28T05:29:47.781Z,12.10
2018-09-28T05:32:15.974Z,12.10
2018-09-28T05:34:43.891Z,12.00
2018-09-28T05:39:53.297Z,12.00
2018-09-28T05:42:21.382Z,11.80
2018-09-28T05:44:49.414Z,11.80
2018-09-28T05:47:17.477Z,11.80
2018-09-28T05:49:45.589Z,11.80
2018-09-28T05:52:13.624Z,11.70
2018-09-28T05:54:41.681Z,11.70
2018-09-28T05:57:09.733Z,11.70
2018-09-28T05:59:43.417Z,11.70
2018-09-28T06:02:16.881Z,11.70
2018-09-28T06:07:37.754Z,11.60
2018-09-28T06:10:05.805Z,11.60
2018-09-28T06:12:33.837Z,11.60
2018-09-28T06:15:01.909Z,11.60
2018-09-28T06:17:29.978Z,11.60
2018-09-28T06:19:58.043Z,11.70
2018-09-28T06:22:26.089Z,11.70
2018-09-28T06:24:54.145Z,11.70
2018-09-28T06:27:22.185Z,11.70
2018-09-28T06:29:50.263Z,11.70
2018-09-28T06:32:18.302Z,11.70
2018-09-28T06:34:46.427Z,11.80
2018-09-28T06:37:14.465Z,11.90
2018-09-28T06:39:42.542Z,11.80
2018-09-28T06:42:10.766Z,11.80
2018-09-28T06:44:39.196Z,11.80
2018-09-28T06:47:07.305Z,11.80
2018-09-28T06:49:35.476Z,11.90
2018-09-28T06:52:03.518Z,11.90
2018-09-28T06:54:31.713Z,11.90
2018-09-28T06:56:59.762Z,11.90
2018-09-28T06:59:27.813Z,12.00
2018-09-28T07:01:55.887Z,12.10
2018-09-28T07:04:24.034Z,12.10
2018-09-28T07:06:52.070Z,12.10
2018-09-28T07:09:20.184Z,12.10
2018-09-28T07:11:48.251Z,12.10
2018-09-28T07:14:16.257Z,12.10
2018-09-28T07:16:44.346Z,12.10
2018-09-28T07:19:12.393Z,12.10
2018-09-28T07:21:40.445Z,12.20
2018-09-28T07:24:08.592Z,12.30
2018-09-28T07:26:36.597Z,12.40
2018-09-28T07:29:04.666Z,12.50
2018-09-28T07:31:32.773Z,12.50
2018-09-28T07:34:00.937Z,12.60
2018-09-28T07:36:29.102Z,12.60
2018-09-28T07:38:57.177Z,12.60
2018-09-28T07:41:25.241Z,12.60
2018-09-28T07:43:53.282Z,12.60
2018-09-28T07:46:21.309Z,12.70
2018-09-28T07:48:49.374Z,12.90
2018-09-28T07:51:17.421Z,12.90
2018-09-28T07:53:45.446Z,12.90
2018-09-28T07:56:13.514Z,13.00
2018-09-28T07:58:41.545Z,13.00
2018-09-28T08:01:09.579Z,13.00
2018-09-28T08:03:37.657Z,13.10
2018-09-28T08:06:05.726Z,12.90
2018-09-28T08:08:33.789Z,13.00
2018-09-28T08:11:01.893Z,12.90
2018-09-28T08:13:29.941Z,13.00
2018-09-28T08:15:57.996Z,13.10
2018-09-28T08:18:26.057Z,13.10
2018-09-28T08:20:54.101Z,13.30
2018-09-28T08:23:22.217Z,13.40
2018-09-28T08:25:50.217Z,13.40
2018-09-28T08:28:18.269Z,13.40
2018-09-28T08:30:46.329Z,13.30
2018-09-28T08:33:14.381Z,13.20
2018-09-28T08:35:42.402Z,13.30
2018-09-28T08:38:10.446Z,13.40
2018-09-28T08:40:38.498Z,13.50
2018-09-28T08:43:06.531Z,13.60
2018-09-28T08:45:34.601Z,13.50
2018-09-28T08:48:02.632Z,13.50
2018-09-28T08:50:30.661Z,13.60
2018-09-28T08:52:58.893Z,13.60
2018-09-28T08:55:26.978Z,13.50
2018-09-28T08:57:55.051Z,13.50
2018-09-28T09:00:23.423Z,13.60
2018-09-28T09:02:51.493Z,13.60
2018-09-28T09:05:19.521Z,13.70
2018-09-28T09:07:47.576Z,13.80
2018-09-28T09:10:15.626Z,13.70
2018-09-28T09:12:43.670Z,13.50
2018-09-28T09:15:11.693Z,13.50
2018-09-28T09:17:39.756Z,13.50
2018-09-28T09:20:08.030Z,13.60
2018-09-28T09:22:36.101Z,13.80
2018-09-28T09:25:04.172Z,13.90
2018-09-28T09:27:32.307Z,13.90
2018-09-28T09:30:00.400Z,14.00
2018-09-28T09:32:28.411Z,13.80
2018-09-28T09:34:56.433Z,13.90
2018-09-28T09:37:24.629Z,14.00
2018-09-28T09:39:52.750Z,14.10
2018-09-28T09:42:20.797Z,14.20
2018-09-28T09:44:48.829Z,14.20
2018-09-28T09:47:16.921Z,14.00
2018-09-28T09:49:44.980Z,13.90
2018-09-28T09:52:13.061Z,13.90
2018-09-28T09:54:41.132Z,14.10
2018-09-28T09:57:09.190Z,14.20
2018-09-28T09:59:37.222Z,14.30
2018-09-28T10:02:10.797Z,14.20
2018-09-28T10:04:38.845Z,14.20
2018-09-28T10:07:06.889Z,14.20
2018-09-28T10:09:34.925Z,14.20
2018-09-28T10:12:02.986Z,14.20
2018-09-28T10:14:31.037Z,14.20
2018-09-28T10:16:59.091Z,14.20
2018-09-28T10:19:27.152Z,14.30
2018-09-28T10:21:55.198Z,14.40
2018-09-28T10:24:23.239Z,14.50
2018-09-28T10:26:51.282Z,14.40
2018-09-28T10:29:19.318Z,14.30
2018-09-28T10:31:47.416Z,14.30
2018-09-28T10:34:15.477Z,14.30
2018-09-28T10:36:43.526Z,14.40
2018-09-28T10:39:11.610Z,14.30
2018-09-28T10:41:39.649Z,14.30
2018-09-28T10:44:07.694Z,14.40
2018-09-28T10:46:35.827Z,14.50
2018-09-28T10:49:03.826Z,14.70
2018-09-28T10:51:31.888Z,14.80
2018-09-28T10:53:59.975Z,14.90
2018-09-28T10:56:28.114Z,14.80
2018-09-28T10:58:56.241Z,14.60
2018-09-28T11:01:24.228Z,14.60
2018-09-28T11:03:52.302Z,14.60
2018-09-28T11:06:20.369Z,14.70
2018-09-28T11:08:48.508Z,14.70
2018-09-28T11:11:17.666Z,14.70
2018-09-28T11:13:45.706Z,14.70
2018-09-28T11:16:13.762Z,14.80
2018-09-28T11:18:41.875Z,14.70
2018-09-28T11:21:09.942Z,14.70
2018-09-28T11:23:37.970Z,14.80
2018-09-28T11:26:06.029Z,14.80
2018-09-28T11:28:34.094Z,14.80
2018-09-28T11:31:02.155Z,14.60
2018-09-28T11:33:30.234Z,14.60
2018-09-28T11:35:58.273Z,14.50
2018-09-28T11:38:26.317Z,14.50
2018-09-28T11:40:54.374Z,14.60
2018-09-28T11:43:22.621Z,14.60
2018-09-28T11:45:50.630Z,14.80
2018-09-28T11:48:18.648Z,15.00
2018-09-28T11:50:46.670Z,15.10
2018-09-28T11:53:14.737Z,15.30
2018-09-28T11:55:42.781Z,15.30
2018-09-28T11:58:10.838Z,15.30
2018-09-28T12:00:38.866Z,15.20
2018-09-28T12:03:06.955Z,14.90
2018-09-28T12:05:35.009Z,14.70
2018-09-28T12:08:03.049Z,14.70
2018-09-28T12:10:31.085Z,14.80
2018-09-28T12:12:59.125Z,14.90
2018-09-28T12:15:27.246Z,14.80
2018-09-28T12:17:55.529Z,14.60
2018-09-28T12:20:23.586Z,14.60
2018-09-28T12:22:51.618Z,14.70
2018-09-28T12:25:19.657Z,14.90
2018-09-28T12:27:47.798Z,15.20
2018-09-28T12:30:15.827Z,15.30
2018-09-28T12:32:43.879Z,15.40
2018-09-28T12:35:11.908Z,15.00
2018-09-28T12:37:39.946Z,14.90
2018-09-28T12:40:07.982Z,14.70
2018-09-28T12:42:36.028Z,14.80
2018-09-28T12:45:04.151Z,14.70
2018-09-28T12:47:32.137Z,14.60
2018-09-28T12:50:00.185Z,14.70
2018-09-28T12:52:28.208Z,14.80
2018-09-28T12:54:56.273Z,15.10
2018-09-28T12:57:24.313Z,15.30
2018-09-28T12:59:52.525Z,15.40
2018-09-28T13:02:20.800Z,15.50
2018-09-28T13:04:48.793Z,15.10
2018-09-28T13:07:16.841Z,14.90
2018-09-28T13:09:44.889Z,14.80
2018-09-28T13:12:12.997Z,14.80
2018-09-28T13:14:41.038Z,14.90
2018-09-28T13:17:09.037Z,14.80
2018-09-28T13:19:37.110Z,14.70
2018-09-28T13:22:05.186Z,14.80
2018-09-28T13:24:33.476Z,14.70
2018-09-28T13:27:01.562Z,14.70
2018-09-28T13:29:29.613Z,14.70
2018-09-28T13:31:57.678Z,14.90
2018-09-28T13:34:25.739Z,14.90
2018-09-28T13:36:53.773Z,15.10
2018-09-28T13:39:21.814Z,15.10
2018-09-28T13:41:49.855Z,15.00
2018-09-28T13:44:17.930Z,14.90
2018-09-28T13:46:45.960Z,14.80
2018-09-28T13:49:14.001Z,15.00
2018-09-28T13:51:42.053Z,15.00
2018-09-28T13:54:10.118Z,15.10
2018-09-28T13:56:38.239Z,15.20
2018-09-28T13:59:06.266Z,15.10
2018-09-28T14:01:34.334Z,15.20
2018-09-28T14:04:02.382Z,15.10
2018-09-28T14:06:30.519Z,15.00
2018-09-28T14:08:58.521Z,15.00
2018-09-28T14:11:26.557Z,14.90
2018-09-28T14:13:54.617Z,15.00
2018-09-28T14:16:22.765Z,14.80
2018-09-28T14:18:50.803Z,14.70
2018-09-28T14:21:18.825Z,14.60
2018-09-28T14:23:46.878Z,14.50
2018-09-28T14:26:14.974Z,14.50
2018-09-28T14:28:43.069Z,14.50
2018-09-28T14:31:11.101Z,14.60
2018-09-28T14:33:39.211Z,14.70
2018-09-28T14:36:07.206Z,14.80
2018-09-28T14:38:35.337Z,14.80
2018-09-28T14:41:03.352Z,14.80
2018-09-28T14:43:31.390Z,14.90
2018-09-28T14:45:59.455Z,15.00
2018-09-28T14:48:27.534Z,15.10
2018-09-28T14:50:55.559Z,15.30
2018-09-28T14:53:23.573Z,15.30
2018-09-28T14:55:51.631Z,15.40
2018-09-28T14:58:19.697Z,15.50
2018-09-28T15:00:47.872Z,15.20
2018-09-28T15:03:15.768Z,15.30
2018-09-28T15:05:43.813Z,15.30
2018-09-28T15:08:11.863Z,15.10
2018-09-28T15:10:39.908Z,15.10
2018-09-28T15:13:07.961Z,15.00
2018-09-28T15:15:36.018Z,14.90
2018-09-28T15:18:04.064Z,14.90
2018-09-28T15:20:32.082Z,14.90
2018-09-28T15:23:00.137Z,14.90
2018-09-28T15:25:28.203Z,15.00
2018-09-28T15:27:56.237Z,14.80
2018-09-28T15:30:24.265Z,14.70
2018-09-28T15:32:52.333Z,14.60
2018-09-28T15:35:20.379Z,14.60
2018-09-28T15:37:48.393Z,14.70
2018-09-28T15:40:16.479Z,14.70
2018-09-28T15:42:44.531Z,14.60
2018-09-28T15:45:12.583Z,14.70
2018-09-28T15:47:40.658Z,14.70
2018-09-28T15:50:08.693Z,14.70
2018-09-28T15:52:36.733Z,14.70
2018-09-28T15:55:04.777Z,14.90
2018-09-28T15:57:32.825Z,15.20
2018-09-28T16:00:00.911Z,15.30
2018-09-28T16:02:28.978Z,15.40
2018-09-28T16:04:57.008Z,15.30
2018-09-28T16:07:25.045Z,15.30
2018-09-28T16:09:53.106Z,15.30
2018-09-28T16:12:21.144Z,15.00
2018-09-28T16:14:49.174Z,14.70
2018-09-28T16:17:17.239Z,14.70
2018-09-28T16:19:45.291Z,14.60
2018-09-28T16:22:13.334Z,14.50
2018-09-28T16:24:41.414Z,14.60
2018-09-28T16:27:09.433Z,14.70
2018-09-28T16:29:37.477Z,14.60
2018-09-28T16:32:05.529Z,14.50
2018-09-28T16:34:33.573Z,14.40
2018-09-28T16:37:01.662Z,14.30
2018-09-28T16:39:29.693Z,14.20
2018-09-28T16:41:57.761Z,14.00
2018-09-28T16:44:25.806Z,13.90
2018-09-28T16:46:53.870Z,13.80
2018-09-28T16:49:21.953Z,13.60
2018-09-28T16:51:50.018Z,13.40
2018-09-28T16:54:18.069Z,13.30
2018-09-28T16:56:46.503Z,13.30
2018-09-28T16:59:14.563Z,13.20
2018-09-28T17:01:42.594Z,13.10
2018-09-28T17:04:10.714Z,13.00
2018-09-28T17:06:38.770Z,13.00
2018-09-28T17:09:07.611Z,12.90
2018-09-28T17:11:35.595Z,12.90
2018-09-28T17:14:03.694Z,12.90
2018-09-28T17:16:31.753Z,12.80
2018-09-28T17:18:59.794Z,12.70
2018-09-28T17:21:27.850Z,12.60
2018-09-28T17:23:55.906Z,12.60
2018-09-28T17:26:23.958Z,12.50
2018-09-28T17:28:52.021Z,12.50
2018-09-28T17:31:20.076Z,12.50
2018-09-28T17:33:48.168Z,12.40
2018-09-28T17:36:16.234Z,12.40
2018-09-28T17:38:44.290Z,12.40
2018-09-28T17:41:12.504Z,12.30
2018-09-28T17:43:40.577Z,12.30
2018-09-28T17:46:08.642Z,12.30
2018-09-28T17:48:36.778Z,12.20
2018-09-28T17:51:04.838Z,12.10
2018-09-28T17:53:32.891Z,12.10
2018-09-28T17:56:00.967Z,12.00
2018-09-28T17:58:29.009Z,11.90
2018-09-28T18:00:57.061Z,11.90
2018-09-28T18:03:25.125Z,11.90
2018-09-28T18:05:53.185Z,11.80
2018-09-28T18:08:21.274Z,11.80
2018-09-28T18:10:49.350Z,11.70
2018-09-28T18:13:17.401Z,11.70
2018-09-28T18:15:45.482Z,11.60
2018-09-28T18:18:13.554Z,11.60
2018-09-28T18:20:41.654Z,11.50
2018-09-28T18:23:09.727Z,11.50
2018-09-28T18:25:37.795Z,11.50
2018-09-28T18:28:06.070Z,11.40
2018-09-28T18:30:34.119Z,11.40
2018-09-28T18:33:02.399Z,11.40
2018-09-28T18:35:30.445Z,11.30
2018-09-28T18:37:58.545Z,11.30
2018-09-28T18:40:26.595Z,11.20
2018-09-28T18:42:54.644Z,11.20
2018-09-28T18:45:22.701Z,11.20
2018-09-28T18:47:50.768Z,11.20
2018-09-28T18:50:18.834Z,11.10
2018-09-28T18:52:46.902Z,11.10
2018-09-28T18:55:14.957Z,11.00
2018-09-28T18:57:43.017Z,11.00
2018-09-28T19:00:11.101Z,11.00
2018-09-28T19:02:39.461Z,11.00
2018-09-28T19:05:07.507Z,11.00
2018-09-28T19:07:35.626Z,10.90
2018-09-28T19:10:03.673Z,11.00
2018-09-28T19:12:31.768Z,11.00
2018-09-28T19:14:59.770Z,10.90
2018-09-28T19:17:27.842Z,10.90
2018-09-28T19:19:55.905Z,10.90
2018-09-28T19:22:24.120Z,10.80
2018-09-28T19:24:52.161Z,10.80
2018-09-28T19:27:20.227Z,10.70
2018-09-28T19:29:48.509Z,10.70
2018-09-28T19:32:16.716Z,10.60
2018-09-28T19:34:44.770Z,10.60
2018-09-28T19:37:12.798Z,10.60
2018-09-28T19:39:40.869Z,10.60
2018-09-28T19:42:08.901Z,10.60
2018-09-28T19:44:36.962Z,10.60
2018-09-28T19:47:05.029Z,10.60
2018-09-28T19:49:33.080Z,10.60
2018-09-28T19:52:01.130Z,10.60
2018-09-28T19:54:29.197Z,10.50
2018-09-28T19:56:57.296Z,10.60
2018-09-28T19:59:25.342Z,10.60
2018-09-28T20:01:53.391Z,10.50
2018-09-28T20:04:21.490Z,10.50
2018-09-28T20:06:49.509Z,10.50
2018-09-28T20:09:17.562Z,10.50
2018-09-28T20:11:45.629Z,10.40
2018-09-28T20:14:13.684Z,10.40
2018-09-28T20:16:41.736Z,10.40
2018-09-28T20:19:09.793Z,10.40
2018-09-28T20:21:37.909Z,10.40
2018-09-28T20:24:06.345Z,10.30
2018-09-28T20:26:34.448Z,10.30
2018-09-28T20:29:02.501Z,10.30
2018-09-28T20:31:30.561Z,10.30
2018-09-28T20:33:58.609Z,10.30
2018-09-28T20:36:26.663Z,10.30
2018-09-28T20:38:54.718Z,10.30
2018-09-28T20:41:22.812Z,10.30
2018-09-28T20:43:50.856Z,10.30
2018-09-28T20:46:18.915Z,10.30
2018-09-28T20:48:46.999Z,10.20
2018-09-28T20:51:15.033Z,10.20
2018-09-28T20:53:43.118Z,10.10
2018-09-28T20:56:11.166Z,10.10
2018-09-28T20:58:39.238Z,10.10
2018-09-28T21:01:07.354Z,10.10
2018-09-28T21:03:35.332Z,10.00
2018-09-28T21:06:03.374Z,9.90
2018-09-28T21:08:31.441Z,9.90
2018-09-28T21:10:59.506Z,9.80
2018-09-28T21:13:27.602Z,9.80
2018-09-28T21:15:55.868Z,9.80
2018-09-28T21:18:23.905Z,9.70
2018-09-28T21:20:51.961Z,9.70
2018-09-28T21:23:19.991Z,9.70
2018-09-28T21:25:48.030Z,9.70
2018-09-28T21:28:16.073Z,9.70
2018-09-28T21:30:44.134Z,9.60
2018-09-28T21:33:12.177Z,9.60
2018-09-28T21:35:40.219Z,9.50
2018-09-28T21:38:08.257Z,9.50
2018-09-28T21:40:36.294Z,9.50
2018-09-28T21:43:04.327Z,9.50
2018-09-28T21:45:32.396Z,9.40
2018-09-28T21:48:00.433Z,9.40
2018-09-28T21:50:28.489Z,9.40
2018-09-28T21:52:56.518Z,9.40
2018-09-28T21:55:24.561Z,9.40
2018-09-28T21:57:52.617Z,9.40
2018-09-28T22:00:20.649Z,9.30
2018-09-28T22:02:48.707Z,9.30
2018-09-28T22:05:16.741Z,9.30
2018-09-28T22:07:44.778Z,9.30
2018-09-28T22:10:12.829Z,9.30
2018-09-28T22:12:40.910Z,9.30
2018-09-28T22:15:08.960Z,9.20
2018-09-28T22:17:37.133Z,9.20
2018-09-28T22:20:06.129Z,9.20
2018-09-28T22:22:34.165Z,9.10
2018-09-28T22:25:02.278Z,9.10
2018-09-28T22:27:30.334Z,9.10
2018-09-28T22:29:58.386Z,9.10
2018-09-28T22:32:26.426Z,9.00
2018-09-28T22:34:54.502Z,9.00
2018-09-28T22:37:22.545Z,9.00
2018-09-28T22:39:50.578Z,9.00
2018-09-28T22:42:18.626Z,9.00
2018-09-28T22:44:46.686Z,9.00
2018-09-28T22:47:14.762Z,9.00
2018-09-28T22:49:42.810Z,9.00
2018-09-28T22:52:10.878Z,9.00
2018-09-28T22:54:38.934Z,9.00
2018-09-28T22:57:06.997Z,9.00
2018-09-28T22:59:35.063Z,9.00
2018-09-28T23:02:03.113Z,9.00
2018-09-28T23:04:31.143Z,9.00
2018-09-28T23:06:59.233Z,9.00
2018-09-28T23:09:27.266Z,8.90
2018-09-28T23:11:55.310Z,8.90
2018-09-28T23:14:23.349Z,9.00
2018-09-28T23:16:51.392Z,9.00
2018-09-28T23:19:19.467Z,9.00
2018-09-28T23:21:47.523Z,9.00
2018-09-28T23:24:15.566Z,9.00
2018-09-28T23:26:43.602Z,9.00
2018-09-28T23:29:11.789Z,8.90
2018-09-28T23:31:39.830Z,8.90
2018-09-28T23:34:08.137Z,8.90
2018-09-28T23:36:36.202Z,8.90
2018-09-28T23:39:05.833Z,8.90
2018-09-28T23:41:33.938Z,8.80
2018-09-28T23:44:01.986Z,8.80
2018-09-28T23:46:30.036Z,8.90
2018-09-28T23:48:58.093Z,8.90
2018-09-28T23:51:26.137Z,9.00
2018-09-28T23:53:54.190Z,9.00
2018-09-28T23:56:22.265Z,9.00
2018-09-28T23:58:50.304Z,9.00
